createdAt,value
2022-11-17T00:00:33.677Z,88.03
2022-11-17T00:03:04.939Z,87.97
2022-11-17T00:05:32.522Z,88.01
2022-11-17T00:08:00.075Z,87.82
2022-11-17T00:10:27.636Z,87.80
2022-11-17T00:12:55.232Z,87.80
2022-11-17T00:15:23.012Z,87.87
2022-11-17T00:17:51.433Z,87.95
2022-11-17T00:20:19.140Z,87.96
2022-11-17T00:22:46.770Z,88.00
2022-11-17T00:25:14.470Z,88.00
2022-11-17T00:27:42.070Z,87.93
2022-11-17T00:30:09.986Z,88.01
2022-11-17T00:32:37.657Z,87.76
2022-11-17T00:35:06.203Z,87.75
2022-11-17T00:37:37.038Z,87.68
2022-11-17T00:40:05.873Z,87.60
2022-11-17T00:42:33.473Z,87.67
2022-11-17T00:45:01.116Z,87.73
2022-11-17T00:47:28.660Z,87.78
2022-11-17T00:49:56.229Z,87.86
2022-11-17T00:52:23.775Z,87.90
2022-11-17T00:54:51.343Z,87.99
2022-11-17T00:57:19.018Z,88.15
2022-11-17T00:59:46.609Z,87.99
2022-11-17T01:02:14.182Z,87.72
2022-11-17T01:04:41.820Z,87.60
2022-11-17T01:07:09.600Z,87.48
2022-11-17T01:09:37.211Z,87.38
2022-11-17T01:12:05.015Z,87.37
2022-11-17T01:14:32.560Z,87.26
2022-11-17T01:17:00.279Z,87.28
2022-11-17T01:19:28.150Z,86.96
2022-11-17T01:21:55.837Z,86.75
2022-11-17T01:24:23.448Z,86.86
2022-11-17T01:26:51.068Z,86.67
2022-11-17T01:29:18.978Z,86.62
2022-11-17T01:31:50.726Z,86.59
2022-11-17T01:34:18.813Z,86.47
2022-11-17T01:36:46.426Z,86.53
2022-11-17T01:39:14.221Z,86.60
2022-11-17T01:41:41.828Z,86.60
2022-11-17T01:44:43.797Z,86.45
2022-11-17T01:47:15.358Z,86.70
2022-11-17T01:49:44.482Z,86.82
2022-11-17T01:52:13.068Z,86.86
2022-11-17T01:54:43.349Z,86.94
2022-11-17T01:57:22.039Z,86.98
2022-11-17T01:59:56.925Z,86.93
2022-11-17T02:02:24.498Z,86.93
2022-11-17T02:05:12.415Z,87.01
2022-11-17T02:07:42.871Z,87.04
2022-11-17T02:10:10.944Z,87.02
2022-11-17T02:12:38.811Z,87.05
2022-11-17T02:15:07.074Z,86.86
2022-11-17T02:17:43.927Z,87.05
2022-11-17T02:20:22.593Z,87.18
2022-11-17T02:23:11.479Z,87.27
2022-11-17T02:25:42.175Z,87.34
2022-11-17T02:28:15.403Z,87.33
2022-11-17T02:30:58.456Z,87.06
2022-11-17T02:33:37.101Z,87.04
2022-11-17T02:36:14.407Z,87.10
2022-11-17T02:38:53.003Z,86.91
2022-11-17T02:41:29.574Z,86.91
2022-11-17T02:44:04.033Z,86.71
2022-11-17T02:46:46.842Z,86.65
2022-11-17T02:49:26.278Z,86.53
2022-11-17T02:51:58.687Z,86.27
2022-11-17T02:54:29.451Z,86.42
2022-11-17T02:56:57.026Z,86.33
2022-11-17T02:59:33.512Z,86.30
2022-11-17T03:02:07.276Z,86.17
2022-11-17T03:04:59.916Z,86.27
2022-11-17T03:07:46.314Z,86.16
2022-11-17T03:10:25.650Z,85.96
2022-11-17T03:13:04.131Z,85.97
2022-11-17T03:15:43.135Z,86.06
2022-11-17T03:18:49.199Z,86.18
2022-11-17T03:21:26.748Z,86.14
2022-11-17T03:24:21.212Z,86.15
2022-11-17T03:26:56.439Z,85.84
2022-11-17T03:29:27.706Z,85.60
2022-11-17T03:32:00.556Z,85.57
2022-11-17T03:34:33.037Z,85.52
2022-11-17T03:37:05.842Z,85.66
2022-11-17T03:39:41.390Z,85.37
2022-11-17T03:42:18.669Z,85.35
2022-11-17T03:44:52.795Z,85.48
2022-11-17T03:47:23.723Z,85.63
2022-11-17T03:49:54.878Z,85.69
2022-11-17T03:52:22.840Z,85.76
2022-11-17T03:54:51.331Z,85.76
2022-11-17T03:57:27.667Z,86.05
2022-11-17T03:59:59.187Z,86.38
2022-11-17T04:02:27.064Z,86.62
2022-11-17T04:04:54.807Z,86.75
2022-11-17T04:07:22.425Z,86.98
2022-11-17T04:09:50.035Z,87.10
2022-11-17T04:12:17.610Z,87.31
2022-11-17T04:14:45.163Z,87.16
2022-11-17T04:17:12.892Z,87.11
2022-11-17T04:19:40.444Z,87.05
2022-11-17T04:22:08.091Z,87.03
2022-11-17T04:24:35.654Z,87.10
2022-11-17T04:27:03.212Z,87.08
2022-11-17T04:29:31.024Z,87.00
2022-11-17T04:31:58.620Z,86.98
2022-11-17T04:34:26.594Z,86.65
2022-11-17T04:36:54.148Z,86.58
2022-11-17T04:39:21.733Z,86.47
2022-11-17T04:41:49.282Z,86.43
2022-11-17T04:44:17.842Z,86.35
2022-11-17T04:46:45.727Z,86.16
2022-11-17T04:49:15.256Z,86.16
2022-11-17T04:51:42.922Z,86.22
2022-11-17T04:54:13.142Z,85.98
2022-11-17T04:56:41.197Z,86.13
2022-11-17T04:59:09.177Z,86.36
2022-11-17T05:01:37.207Z,86.49
2022-11-17T05:04:09.971Z,86.64
2022-11-17T05:06:45.284Z,86.76
2022-11-17T05:09:15.718Z,86.79
2022-11-17T05:11:43.978Z,86.90
2022-11-17T05:14:12.968Z,86.92
2022-11-17T05:16:41.388Z,86.82
2022-11-17T05:19:14.515Z,86.77
2022-11-17T05:21:42.495Z,86.66
2022-11-17T05:24:10.244Z,86.79
2022-11-17T05:26:38.364Z,86.92
2022-11-17T05:29:07.731Z,86.76
2022-11-17T05:31:35.625Z,86.61
2022-11-17T05:34:05.067Z,86.52
2022-11-17T05:36:33.740Z,86.69
2022-11-17T05:39:01.803Z,86.84
2022-11-17T05:41:29.474Z,86.72
2022-11-17T05:43:57.929Z,86.67
2022-11-17T05:46:26.212Z,86.53
2022-11-17T05:48:54.089Z,86.41
2022-11-17T05:51:24.095Z,86.23
2022-11-17T05:53:51.673Z,86.18
2022-11-17T05:56:45.113Z,86.18
2022-11-17T05:59:36.619Z,86.17
2022-11-17T06:02:11.496Z,86.18
2022-11-17T06:04:39.611Z,86.38
2022-11-17T06:07:07.566Z,86.15
2022-11-17T06:09:38.941Z,86.00
2022-11-17T06:12:06.829Z,85.85
2022-11-17T06:14:35.372Z,85.71
2022-11-17T06:17:09.346Z,85.83
2022-11-17T06:19:46.637Z,85.81
2022-11-17T06:22:14.577Z,85.89
2022-11-17T06:24:43.732Z,85.92
2022-11-17T06:27:15.005Z,86.05
2022-11-17T06:29:44.958Z,85.98
2022-11-17T06:32:14.910Z,86.11
2022-11-17T06:34:47.968Z,86.04
2022-11-17T06:37:18.109Z,85.99
2022-11-17T06:39:45.807Z,86.10
2022-11-17T06:42:13.379Z,86.09
2022-11-17T06:44:40.987Z,85.99
2022-11-17T06:47:08.584Z,86.10
2022-11-17T06:49:36.163Z,86.10
2022-11-17T06:52:03.819Z,86.33
2022-11-17T06:54:31.511Z,86.30
2022-11-17T06:56:59.201Z,86.10
2022-11-17T06:59:26.914Z,86.00
2022-11-17T07:01:54.564Z,86.00
2022-11-17T07:04:22.230Z,85.83
2022-11-17T07:06:50.332Z,85.78
2022-11-17T07:09:18.126Z,85.71
2022-11-17T07:11:45.790Z,85.58
2022-11-17T07:14:13.449Z,85.38
2022-11-17T07:16:42.212Z,85.20
2022-11-17T07:19:10.643Z,84.71
2022-11-17T07:21:38.457Z,84.36
2022-11-17T07:24:06.428Z,84.47
2022-11-17T07:26:34.166Z,84.24
2022-11-17T07:29:04.487Z,83.80
2022-11-17T07:31:35.079Z,83.42
2022-11-17T07:34:06.128Z,82.51
2022-11-17T07:36:33.729Z,81.65
2022-11-17T07:39:01.441Z,81.80
2022-11-17T07:41:29.109Z,81.10
2022-11-17T07:43:56.776Z,79.96
2022-11-17T07:46:24.911Z,80.12
2022-11-17T07:48:55.727Z,80.00
2022-11-17T07:51:23.421Z,79.80
2022-11-17T07:53:51.061Z,79.61
2022-11-17T07:56:18.853Z,79.64
2022-11-17T07:58:46.479Z,79.17
2022-11-17T08:01:15.041Z,79.08
2022-11-17T08:03:45.918Z,79.28
2022-11-17T08:06:13.708Z,78.84
2022-11-17T08:08:41.446Z,78.07
2022-11-17T08:11:11.797Z,78.36
2022-11-17T08:13:40.571Z,78.30
2022-11-17T08:16:10.154Z,78.21
2022-11-17T08:18:39.406Z,77.78
2022-11-17T08:21:13.016Z,76.88
2022-11-17T08:23:41.958Z,76.90
2022-11-17T08:26:11.863Z,76.79
2022-11-17T08:28:39.877Z,76.19
2022-11-17T08:31:08.590Z,75.68
2022-11-17T08:33:36.359Z,75.34
2022-11-17T08:36:05.410Z,74.48
2022-11-17T08:38:34.357Z,72.65
2022-11-17T08:41:07.827Z,70.41
2022-11-17T08:43:35.955Z,69.11
2022-11-17T08:46:04.171Z,69.67
2022-11-17T08:48:31.884Z,68.86
2022-11-17T08:51:05.525Z,66.49
2022-11-17T08:53:33.240Z,65.66
2022-11-17T08:56:00.907Z,64.62
2022-11-17T08:58:28.597Z,62.89
2022-11-17T09:01:00.950Z,62.83
2022-11-17T09:03:31.779Z,58.51
2022-11-17T09:05:59.459Z,56.22
2022-11-17T09:08:56.967Z,55.66
2022-11-17T09:11:15.369Z,55.39
2022-11-17T09:13:43.037Z,56.39
2022-11-17T09:16:11.978Z,55.26
2022-11-17T09:18:41.137Z,56.16
2022-11-17T09:21:15.957Z,57.48
2022-11-17T09:23:44.735Z,57.23
2022-11-17T09:26:15.681Z,57.58
2022-11-17T09:28:45.409Z,57.53
2022-11-17T09:31:18.228Z,58.52
2022-11-17T09:33:46.225Z,59.96
2022-11-17T09:36:16.076Z,60.96
2022-11-17T09:38:44.075Z,61.69
2022-11-17T09:41:38.603Z,62.58
2022-11-17T09:44:15.110Z,62.90
2022-11-17T09:47:01.075Z,63.93
2022-11-17T09:49:53.640Z,64.97
2022-11-17T09:52:43.719Z,65.15
2022-11-17T09:55:22.535Z,64.74
2022-11-17T09:58:01.001Z,64.23
2022-11-17T10:00:29.044Z,64.15
2022-11-17T10:02:56.674Z,64.44
2022-11-17T10:05:33.854Z,64.13
2022-11-17T10:08:12.770Z,60.63
2022-11-17T10:10:47.083Z,58.82
2022-11-17T10:13:33.121Z,59.15
2022-11-17T10:16:05.071Z,57.72
2022-11-17T10:18:38.090Z,57.39
2022-11-17T10:21:08.120Z,58.85
2022-11-17T10:23:46.834Z,58.87
2022-11-17T10:26:16.175Z,59.68
2022-11-17T10:28:47.445Z,58.98
2022-11-17T10:31:22.975Z,59.41
2022-11-17T10:33:53.017Z,58.85
2022-11-17T10:36:34.876Z,57.27
2022-11-17T10:39:03.476Z,53.96
2022-11-17T10:41:39.207Z,52.66
2022-11-17T10:44:21.714Z,50.00
2022-11-17T10:47:02.592Z,50.69
2022-11-17T10:49:36.277Z,51.37
2022-11-17T10:52:09.792Z,51.70
2022-11-17T10:54:38.372Z,52.92
2022-11-17T10:57:12.395Z,53.88
2022-11-17T10:59:56.509Z,52.81
2022-11-17T11:02:39.065Z,52.31
2022-11-17T11:05:26.623Z,54.20
2022-11-17T11:08:21.382Z,53.94
2022-11-17T11:11:17.801Z,55.00
2022-11-17T11:14:16.296Z,55.29
2022-11-17T11:16:48.505Z,55.09
2022-11-17T11:19:19.336Z,53.80
2022-11-17T11:22:00.825Z,52.83
2022-11-17T11:24:49.187Z,51.84
2022-11-17T11:27:50.918Z,51.61
2022-11-17T11:30:19.732Z,51.73
2022-11-17T11:33:06.133Z,51.82
2022-11-17T11:35:44.932Z,53.56
2022-11-17T11:38:30.956Z,54.27
2022-11-17T11:41:10.481Z,54.77
2022-11-17T11:43:52.318Z,56.07
2022-11-17T11:46:20.563Z,56.89
2022-11-17T11:48:51.981Z,57.15
2022-11-17T11:51:28.747Z,57.28
2022-11-17T11:54:15.090Z,58.15
2022-11-17T11:56:44.239Z,58.59
2022-11-17T11:59:21.493Z,59.21
2022-11-17T12:01:55.317Z,60.08
2022-11-17T12:04:50.354Z,59.88
2022-11-17T12:07:36.214Z,60.08
2022-11-17T12:10:03.798Z,60.64
2022-11-17T12:12:39.079Z,60.93
2022-11-17T12:15:30.343Z,60.65
2022-11-17T12:18:02.437Z,60.40
2022-11-17T12:20:39.222Z,61.06
2022-11-17T12:23:28.825Z,61.47
2022-11-17T12:25:59.970Z,61.32
2022-11-17T12:28:29.427Z,60.92
2022-11-17T12:31:02.583Z,61.64
2022-11-17T12:33:51.399Z,62.02
2022-11-17T12:36:30.203Z,62.39
2022-11-17T12:39:05.033Z,62.44
2022-11-17T12:41:54.496Z,62.55
2022-11-17T12:44:37.611Z,62.96
2022-11-17T12:47:13.930Z,63.21
2022-11-17T12:49:53.520Z,63.33
2022-11-17T12:53:00.111Z,63.28
2022-11-17T12:56:05.480Z,62.81
2022-11-17T12:58:48.556Z,62.44
2022-11-17T13:01:19.774Z,62.74
2022-11-17T13:04:01.235Z,62.64
2022-11-17T13:06:35.325Z,62.58
2022-11-17T13:09:10.554Z,62.32
2022-11-17T13:11:38.321Z,62.58
2022-11-17T13:14:17.149Z,62.91
2022-11-17T13:16:51.601Z,63.18
2022-11-17T13:19:39.427Z,63.39
2022-11-17T13:22:12.990Z,63.18
2022-11-17T13:24:43.711Z,63.13
2022-11-17T13:27:29.911Z,62.82
2022-11-17T13:30:15.217Z,62.92
2022-11-17T13:32:43.443Z,62.66
2022-11-17T13:35:26.230Z,63.19
2022-11-17T13:38:11.906Z,63.52
2022-11-17T13:40:41.602Z,63.49
2022-11-17T13:43:18.268Z,63.52
2022-11-17T13:45:47.435Z,63.93
2022-11-17T13:48:35.763Z,63.80
2022-11-17T13:51:18.521Z,64.57
2022-11-17T13:53:50.202Z,65.62
2022-11-17T13:56:39.227Z,65.17
2022-11-17T13:59:30.228Z,65.42
2022-11-17T14:02:16.466Z,65.27
2022-11-17T14:05:07.714Z,65.76
2022-11-17T14:07:39.471Z,66.32
2022-11-17T14:10:14.558Z,66.76
2022-11-17T14:12:42.524Z,67.29
2022-11-17T14:15:37.549Z,67.49
2022-11-17T14:18:28.224Z,67.51
2022-11-17T14:21:14.175Z,67.27
2022-11-17T14:23:43.041Z,67.70
2022-11-17T14:26:27.118Z,67.86
2022-11-17T14:28:54.740Z,67.91
2022-11-17T14:31:22.362Z,68.73
2022-11-17T14:33:50.385Z,68.88
2022-11-17T14:36:18.343Z,69.43
2022-11-17T14:38:46.638Z,69.85
2022-11-17T14:41:19.107Z,70.14
2022-11-17T14:43:47.729Z,70.41
2022-11-17T14:46:26.618Z,70.91
2022-11-17T14:48:54.587Z,71.08
2022-11-17T14:51:22.314Z,70.78
2022-11-17T14:53:50.231Z,71.09
2022-11-17T14:56:19.817Z,71.61
2022-11-17T14:58:48.838Z,71.85
2022-11-17T15:01:19.232Z,71.95
2022-11-17T15:03:46.901Z,71.17
2022-11-17T15:06:19.367Z,70.62
2022-11-17T15:08:52.717Z,70.79
2022-11-17T15:11:20.382Z,70.77
2022-11-17T15:13:48.029Z,70.72
2022-11-17T15:16:16.036Z,70.34
2022-11-17T15:18:47.907Z,70.25
2022-11-17T15:21:16.650Z,70.69
2022-11-17T15:23:44.589Z,70.55
2022-11-17T15:26:18.162Z,70.09
2022-11-17T15:28:46.698Z,70.10
2022-11-17T15:31:16.798Z,70.38
2022-11-17T15:33:46.267Z,70.46
2022-11-17T15:36:18.947Z,70.75
2022-11-17T15:38:46.820Z,70.96
2022-11-17T15:41:15.926Z,71.00
2022-11-17T15:43:44.545Z,71.30
2022-11-17T15:46:14.940Z,71.32
2022-11-17T15:48:44.055Z,71.41
2022-11-17T15:51:24.506Z,71.69
2022-11-17T15:53:56.046Z,71.71
2022-11-17T15:56:25.894Z,71.93
2022-11-17T15:59:01.971Z,71.82
2022-11-17T16:01:33.551Z,71.86
2022-11-17T16:04:02.568Z,72.04
2022-11-17T16:06:31.483Z,72.13
2022-11-17T16:08:59.905Z,72.21
2022-11-17T16:11:27.917Z,72.75
2022-11-17T16:13:57.162Z,72.62
2022-11-17T16:16:30.820Z,72.61
2022-11-17T16:18:58.868Z,72.70
2022-11-17T16:21:26.955Z,72.85
2022-11-17T16:23:57.002Z,73.16
2022-11-17T16:26:26.096Z,73.35
2022-11-17T16:29:01.461Z,73.41
2022-11-17T16:31:31.833Z,73.68
2022-11-17T16:34:05.046Z,73.65
2022-11-17T16:36:37.301Z,73.89
2022-11-17T16:39:10.122Z,73.81
2022-11-17T16:41:39.764Z,73.88
2022-11-17T16:44:12.829Z,73.90
2022-11-17T16:46:45.865Z,74.09
2022-11-17T16:49:15.679Z,74.60
2022-11-17T16:51:53.480Z,74.79
2022-11-17T16:54:21.199Z,74.79
2022-11-17T16:56:49.519Z,75.07
2022-11-17T16:59:17.355Z,75.23
2022-11-17T17:01:47.944Z,75.31
2022-11-17T17:04:15.612Z,75.46
2022-11-17T17:06:44.441Z,75.52
2022-11-17T17:09:14.768Z,75.57
2022-11-17T17:11:43.625Z,75.79
2022-11-17T17:14:13.430Z,75.78
2022-11-17T17:16:42.131Z,75.92
2022-11-17T17:19:11.467Z,76.15
2022-11-17T17:21:40.249Z,76.37
2022-11-17T17:24:09.237Z,76.53
2022-11-17T17:26:38.193Z,76.73
2022-11-17T17:29:06.719Z,77.02
2022-11-17T17:31:37.548Z,77.15
2022-11-17T17:34:06.586Z,77.23
2022-11-17T17:36:35.662Z,77.39
2022-11-17T17:39:03.890Z,77.64
2022-11-17T17:41:34.880Z,77.45
2022-11-17T17:44:04.837Z,77.91
2022-11-17T17:46:37.580Z,77.85
2022-11-17T17:49:06.094Z,78.02
2022-11-17T17:51:36.931Z,78.21
2022-11-17T17:54:04.645Z,78.01
2022-11-17T17:56:33.940Z,78.24
2022-11-17T17:59:01.709Z,78.16
2022-11-17T18:01:31.524Z,78.20
2022-11-17T18:04:02.212Z,78.35
2022-11-17T18:06:41.417Z,78.22
2022-11-17T18:09:10.949Z,78.39
2022-11-17T18:11:38.672Z,78.29
2022-11-17T18:14:06.281Z,78.52
2022-11-17T18:16:34.314Z,78.53
2022-11-17T18:19:04.422Z,78.75
2022-11-17T18:21:32.680Z,78.59
2022-11-17T18:24:02.291Z,78.75
2022-11-17T18:26:32.957Z,78.70
2022-11-17T18:29:19.200Z,78.48
2022-11-17T18:31:47.636Z,78.82
2022-11-17T18:34:18.688Z,78.76
2022-11-17T18:36:46.824Z,78.65
2022-11-17T18:39:15.435Z,78.74
2022-11-17T18:41:45.513Z,78.76
2022-11-17T18:44:15.200Z,78.89
2022-11-17T18:46:42.979Z,78.74
2022-11-17T18:49:10.751Z,78.74
2022-11-17T18:51:38.569Z,78.79
2022-11-17T18:54:06.495Z,78.72
2022-11-17T18:56:36.233Z,78.71
2022-11-17T18:59:06.004Z,78.52
2022-11-17T19:01:33.777Z,78.53
2022-11-17T19:04:01.506Z,78.60
2022-11-17T19:06:29.620Z,78.45
2022-11-17T19:08:58.849Z,78.51
2022-11-17T19:11:27.963Z,78.42
2022-11-17T19:13:55.663Z,78.60
2022-11-17T19:16:25.782Z,78.53
2022-11-17T19:18:55.581Z,78.69
2022-11-17T19:21:29.090Z,78.58
2022-11-17T19:23:59.264Z,78.54
2022-11-17T19:26:35.520Z,78.72
2022-11-17T19:29:11.157Z,78.81
2022-11-17T19:31:42.171Z,78.75
2022-11-17T19:34:09.793Z,78.78
2022-11-17T19:36:37.574Z,78.97
2022-11-17T19:39:05.483Z,78.87
2022-11-17T19:41:35.558Z,78.97
2022-11-17T19:44:06.411Z,78.91
2022-11-17T19:46:34.477Z,78.92
2022-11-17T19:49:03.596Z,79.12
2022-11-17T19:51:33.834Z,79.22
2022-11-17T19:54:03.282Z,79.24
2022-11-17T19:56:31.650Z,79.62
2022-11-17T19:58:59.371Z,79.46
2022-11-17T20:01:29.102Z,79.65
2022-11-17T20:03:57.960Z,79.67
2022-11-17T20:06:28.040Z,79.53
2022-11-17T20:08:56.665Z,79.63
2022-11-17T20:11:28.725Z,79.83
2022-11-17T20:13:56.623Z,79.97
2022-11-17T20:16:26.551Z,80.02
2022-11-17T20:18:56.789Z,80.19
2022-11-17T20:21:25.502Z,80.22
2022-11-17T20:23:54.602Z,80.21
2022-11-17T20:26:24.758Z,80.21
2022-11-17T20:28:54.226Z,80.41
2022-11-17T20:31:24.907Z,80.47
2022-11-17T20:33:55.148Z,80.77
2022-11-17T20:36:23.198Z,80.94
2022-11-17T20:38:55.981Z,81.38
2022-11-17T20:41:24.601Z,81.62
2022-11-17T20:43:55.015Z,81.82
2022-11-17T20:46:23.737Z,81.80
2022-11-17T20:48:53.587Z,82.11
2022-11-17T20:51:23.352Z,82.20
2022-11-17T20:53:51.425Z,82.34
2022-11-17T20:56:19.404Z,82.30
2022-11-17T20:58:47.194Z,82.29
2022-11-17T21:01:20.703Z,82.37
2022-11-17T21:03:48.476Z,82.19
2022-11-17T21:06:16.908Z,82.19
2022-11-17T21:08:45.690Z,82.41
2022-11-17T21:11:16.589Z,82.59
2022-11-17T21:13:44.310Z,82.62
2022-11-17T21:16:14.776Z,82.44
2022-11-17T21:18:47.195Z,82.64
2022-11-17T21:21:15.633Z,82.52
2022-11-17T21:23:44.085Z,82.66
2022-11-17T21:26:16.497Z,82.62
2022-11-17T21:28:44.486Z,82.56
2022-11-17T21:31:18.054Z,82.65
2022-11-17T21:33:46.780Z,82.74
2022-11-17T21:36:17.057Z,82.75
2022-11-17T21:38:45.612Z,82.63
2022-11-17T21:41:16.104Z,82.62
2022-11-17T21:43:45.995Z,82.58
2022-11-17T21:46:18.735Z,82.32
2022-11-17T21:48:46.771Z,82.31
2022-11-17T21:51:19.529Z,82.05
2022-11-17T21:53:48.026Z,82.21
2022-11-17T21:56:15.882Z,81.80
2022-11-17T21:58:43.634Z,81.92
2022-11-17T22:01:15.772Z,81.80
2022-11-17T22:03:43.484Z,81.90
2022-11-17T22:06:16.842Z,82.20
2022-11-17T22:08:45.896Z,82.14
2022-11-17T22:11:16.449Z,82.19
2022-11-17T22:13:44.095Z,82.29
2022-11-17T22:16:13.977Z,82.25
2022-11-17T22:18:41.887Z,82.05
2022-11-17T22:21:09.563Z,82.19
2022-11-17T22:23:37.216Z,82.17
2022-11-17T22:26:05.636Z,81.98
2022-11-17T22:28:33.330Z,82.03
2022-11-17T22:31:05.735Z,82.01
2022-11-17T22:33:33.529Z,81.83
2022-11-17T22:36:03.010Z,81.89
2022-11-17T22:38:30.645Z,82.11
2022-11-17T22:41:02.776Z,82.02
2022-11-17T22:43:30.565Z,81.85
2022-11-17T22:46:02.213Z,82.13
2022-11-17T22:48:29.738Z,82.09
2022-11-17T22:50:58.929Z,82.25
2022-11-17T22:53:27.052Z,82.12
2022-11-17T22:55:55.010Z,82.23
2022-11-17T22:58:22.639Z,82.30
2022-11-17T23:00:50.238Z,82.19
2022-11-17T23:03:17.908Z,82.35
2022-11-17T23:05:45.574Z,82.23
2022-11-17T23:08:13.410Z,82.33
2022-11-17T23:10:41.091Z,82.39
2022-11-17T23:13:08.744Z,82.22
2022-11-17T23:15:38.768Z,82.17
2022-11-17T23:18:06.917Z,82.36
2022-11-17T23:20:36.602Z,82.37
2022-11-17T23:23:04.622Z,82.53
2022-11-17T23:25:32.273Z,82.45
2022-11-17T23:27:59.925Z,82.41
2022-11-17T23:30:27.590Z,82.52
2022-11-17T23:32:55.220Z,82.41
2022-11-17T23:35:23.239Z,82.42
2022-11-17T23:37:51.041Z,82.44
2022-11-17T23:40:18.865Z,82.50
2022-11-17T23:42:46.470Z,82.48
2022-11-17T23:45:14.166Z,82.87
2022-11-17T23:47:41.889Z,82.95
2022-11-17T23:50:09.756Z,82.77
2022-11-17T23:52:37.359Z,82.66
2022-11-17T23:55:05.341Z,82.69
2022-11-17T23:57:32.952Z,82.59
